createdAt,value
2024-05-09T00:01:37.556Z,3.63
2024-05-09T00:06:39.308Z,7.72
2024-05-09T00:11:41.096Z,5.95
2024-05-09T00:16:43.387Z,4.00
2024-05-09T00:21:45.129Z,4.03
2024-05-09T00:26:46.804Z,3.63
2024-05-09T00:31:48.642Z,4.00
2024-05-09T00:36:51.043Z,4.57
2024-05-09T00:41:52.772Z,4.53
2024-05-09T00:46:56.142Z,5.35
2024-05-09T00:51:57.969Z,7.32
2024-05-09T00:56:59.983Z,5.95
2024-05-09T01:02:01.827Z,5.45
2024-05-09T01:07:03.664Z,7.78
2024-05-09T01:12:05.779Z,6.30
2024-05-09T01:17:07.795Z,6.45
2024-05-09T01:22:09.935Z,6.15
2024-05-09T01:27:11.615Z,6.63
2024-05-09T01:32:13.524Z,6.82
2024-05-09T01:37:15.279Z,6.18
2024-05-09T01:42:17.294Z,7.95
2024-05-09T01:47:19.137Z,7.40
2024-05-09T01:52:20.838Z,5.10
2024-05-09T01:57:22.624Z,5.68
2024-05-09T02:02:25.468Z,7.40
2024-05-09T02:07:27.254Z,5.90
2024-05-09T02:12:29.124Z,5.13
2024-05-09T02:17:32.601Z,7.28
2024-05-09T02:22:34.582Z,5.95
2024-05-09T02:27:36.403Z,5.18
2024-05-09T02:32:38.336Z,6.00
2024-05-09T02:37:40.159Z,6.07
2024-05-09T02:42:41.873Z,5.82
2024-05-09T02:47:43.911Z,6.70
2024-05-09T02:52:45.951Z,4.90
2024-05-09T02:57:47.983Z,6.25
2024-05-09T03:02:49.846Z,5.53
2024-05-09T03:07:51.761Z,5.28
2024-05-09T03:12:53.497Z,7.30
2024-05-09T03:17:55.288Z,10.10
2024-05-09T03:22:57.263Z,6.65
2024-05-09T03:27:59.503Z,5.28
2024-05-09T03:33:01.356Z,5.25
2024-05-09T03:38:03.220Z,8.07
2024-05-09T03:43:05.004Z,8.25
2024-05-09T03:48:07.317Z,7.70
2024-05-09T03:53:13.154Z,7.72
2024-05-09T03:58:15.096Z,6.63
2024-05-09T04:03:17.035Z,6.82
2024-05-09T04:08:18.986Z,7.03
2024-05-09T04:13:20.782Z,6.13
2024-05-09T04:18:22.548Z,5.95
2024-05-09T04:23:24.422Z,6.00
2024-05-09T04:28:26.376Z,4.72
2024-05-09T04:33:28.287Z,5.75
2024-05-09T04:38:30.360Z,5.07
2024-05-09T04:43:33.319Z,4.18
2024-05-09T04:48:35.077Z,7.63
2024-05-09T04:53:37.102Z,7.22
2024-05-09T04:58:39.076Z,5.65
2024-05-09T05:03:40.998Z,6.07
2024-05-09T05:08:42.869Z,6.18
2024-05-09T05:13:44.727Z,7.68
2024-05-09T05:18:46.718Z,6.28
2024-05-09T05:23:48.591Z,5.90
2024-05-09T05:28:50.972Z,7.18
2024-05-09T05:33:52.816Z,5.05
2024-05-09T05:38:54.596Z,4.45
2024-05-09T05:43:56.336Z,3.88
2024-05-09T05:48:58.133Z,4.13
2024-05-09T05:53:59.841Z,5.75
2024-05-09T05:59:01.744Z,3.70
2024-05-09T06:04:03.544Z,3.75
2024-05-09T06:09:06.249Z,4.50
2024-05-09T06:14:08.955Z,5.70
2024-05-09T06:19:10.819Z,4.45
2024-05-09T06:24:12.997Z,7.78
2024-05-09T06:29:14.792Z,5.15
2024-05-09T06:34:18.851Z,5.07
2024-05-09T06:39:20.693Z,5.47
2024-05-09T06:44:22.821Z,4.85
2024-05-09T06:49:29.001Z,5.82
2024-05-09T06:54:31.192Z,6.10
2024-05-09T06:59:33.027Z,5.00
2024-05-09T07:04:35.102Z,6.07
2024-05-09T07:09:37.448Z,6.53
2024-05-09T07:14:39.253Z,4.85
2024-05-09T07:19:41.549Z,5.75
2024-05-09T07:24:43.297Z,6.68
2024-05-09T07:29:45.075Z,4.63
2024-05-09T07:34:46.793Z,6.35
2024-05-09T07:39:48.569Z,4.95
2024-05-09T07:44:50.353Z,5.25
2024-05-09T07:51:32.803Z,6.70
2024-05-09T07:55:13.889Z,4.97
2024-05-09T08:00:20.404Z,5.10
2024-05-09T08:05:28.742Z,4.93
2024-05-09T08:10:30.588Z,4.18
2024-05-09T08:15:32.687Z,6.47
2024-05-09T08:20:39.544Z,6.20
2024-05-09T08:30:43.157Z,3.15
2024-05-09T08:35:45.037Z,4.43
2024-05-09T08:40:47.137Z,4.28
2024-05-09T08:45:49.671Z,3.80
2024-05-09T08:50:54.893Z,5.85
2024-05-09T08:56:01.274Z,4.10
2024-05-09T09:01:04.410Z,3.13
2024-05-09T09:06:12.328Z,3.30
2024-05-09T09:11:14.181Z,3.10
2024-05-09T09:16:17.150Z,5.22
2024-05-09T09:21:18.927Z,3.30
2024-05-09T09:26:20.622Z,3.92
2024-05-09T09:31:22.398Z,11.00
2024-05-09T09:36:28.192Z,5.75
2024-05-09T09:41:30.593Z,3.80
2024-05-09T09:46:32.514Z,5.35
2024-05-09T09:51:35.567Z,3.65
2024-05-09T09:56:39.356Z,3.33
2024-05-09T10:01:43.367Z,5.05
2024-05-09T10:06:57.985Z,3.60
2024-05-09T10:12:13.622Z,4.60
2024-05-09T10:17:16.888Z,3.53
2024-05-09T10:22:28.698Z,3.42
2024-05-09T10:27:31.157Z,2.28
2024-05-09T10:32:40.359Z,3.85
2024-05-09T10:37:42.117Z,3.75
2024-05-09T10:42:44.170Z,3.30
2024-05-09T10:47:46.049Z,4.13
2024-05-09T10:52:48.123Z,3.30
2024-05-09T10:57:50.204Z,2.20
2024-05-09T11:02:55.855Z,3.10
2024-05-09T11:07:57.661Z,3.35
2024-05-09T11:12:59.497Z,3.53
2024-05-09T11:18:01.341Z,2.47
2024-05-09T11:23:06.823Z,2.65
2024-05-09T11:33:15.010Z,2.92
2024-05-09T11:38:16.741Z,3.75
2024-05-09T11:43:18.576Z,3.60
2024-05-09T11:48:20.399Z,3.65
2024-05-09T11:53:22.386Z,4.68
2024-05-09T11:58:24.127Z,2.80
2024-05-09T12:03:25.854Z,4.85
2024-05-09T12:08:27.642Z,2.88
2024-05-09T12:13:29.438Z,2.88
2024-05-09T12:18:31.578Z,4.07
2024-05-09T12:23:33.334Z,3.08
2024-05-09T12:28:34.994Z,4.85
2024-05-09T12:33:36.873Z,4.03
2024-05-09T12:38:38.625Z,3.72
2024-05-09T12:43:40.292Z,3.25
2024-05-09T12:48:42.123Z,2.53
2024-05-09T12:53:43.897Z,3.78
2024-05-09T12:58:45.651Z,4.20
2024-05-09T13:03:47.561Z,4.90
2024-05-09T13:08:49.405Z,2.97
2024-05-09T13:13:51.091Z,2.67
2024-05-09T13:18:52.862Z,3.10
2024-05-09T13:23:56.195Z,3.83
2024-05-09T13:28:58.566Z,4.38
2024-05-09T13:34:00.389Z,4.70
2024-05-09T13:39:02.359Z,3.60
2024-05-09T13:44:04.131Z,2.90
2024-05-09T13:49:07.134Z,2.00
2024-05-09T13:54:10.241Z,2.85
2024-05-09T13:59:11.992Z,3.70
2024-05-09T14:04:14.051Z,3.15
2024-05-09T14:09:16.175Z,4.15
2024-05-09T14:14:17.891Z,3.35
2024-05-09T14:19:19.697Z,4.38
2024-05-09T14:24:21.505Z,3.08
2024-05-09T14:29:23.174Z,1.90
2024-05-09T14:34:25.152Z,4.85
2024-05-09T14:39:27.013Z,4.43
2024-05-09T14:44:28.713Z,3.22
2024-05-09T14:49:31.228Z,2.38
2024-05-09T14:54:32.997Z,4.35
2024-05-09T14:59:34.740Z,3.65
2024-05-09T15:04:36.783Z,3.67
2024-05-09T15:09:38.932Z,3.63
2024-05-09T15:14:40.694Z,4.28
2024-05-09T15:19:45.147Z,3.30
2024-05-09T15:24:47.861Z,3.00
2024-05-09T15:29:49.574Z,3.25
2024-05-09T15:34:51.257Z,3.65
2024-05-09T15:39:53.179Z,2.47
2024-05-09T15:44:54.951Z,4.25
2024-05-09T15:49:56.791Z,5.40
2024-05-09T15:54:58.665Z,3.40
2024-05-09T16:00:00.592Z,7.47
2024-05-09T16:05:02.567Z,4.30
2024-05-09T16:10:06.837Z,3.88
2024-05-09T16:15:08.860Z,2.35
2024-05-09T16:20:15.145Z,2.97
2024-05-09T16:25:20.157Z,2.53
2024-05-09T16:30:28.282Z,3.60
2024-05-09T16:35:37.886Z,3.17
2024-05-09T16:40:41.249Z,3.25
2024-05-09T16:45:44.758Z,3.50
2024-05-09T16:50:46.753Z,3.00
2024-05-09T16:55:48.641Z,2.22
2024-05-09T17:00:50.734Z,2.40
2024-05-09T17:05:52.827Z,3.42
2024-05-09T17:10:55.510Z,4.65
2024-05-09T17:15:57.542Z,5.43
2024-05-09T17:20:59.355Z,4.28
2024-05-09T17:26:01.274Z,5.68
2024-05-09T17:31:03.070Z,3.95
2024-05-09T17:36:04.985Z,4.53
2024-05-09T17:41:06.678Z,5.25
2024-05-09T17:46:08.468Z,4.18
2024-05-09T17:51:10.216Z,3.72
2024-05-09T17:56:11.995Z,2.75
2024-05-09T18:01:13.975Z,2.92
2024-05-09T18:06:16.693Z,4.00
2024-05-09T18:11:18.477Z,3.78
2024-05-09T18:16:20.513Z,7.65
2024-05-09T18:21:22.361Z,9.40
2024-05-09T18:26:24.033Z,10.55
2024-05-09T18:31:25.894Z,7.45
2024-05-09T18:36:27.714Z,7.15
2024-05-09T18:41:29.391Z,9.57
2024-05-09T18:46:31.361Z,7.57
2024-05-09T18:51:33.269Z,5.63
2024-05-09T18:56:36.973Z,6.85
2024-05-09T19:01:41.985Z,5.35
2024-05-09T19:06:45.216Z,4.97
2024-05-09T19:11:47.062Z,5.00
2024-05-09T19:16:48.919Z,4.10
2024-05-09T19:21:50.687Z,4.68
2024-05-09T19:26:52.612Z,4.68
2024-05-09T19:31:54.794Z,5.38
2024-05-09T19:36:56.660Z,4.75
2024-05-09T19:41:58.455Z,5.43
2024-05-09T19:47:00.316Z,7.05
2024-05-09T19:52:02.050Z,7.00
2024-05-09T19:57:04.038Z,6.82
2024-05-09T20:02:05.869Z,7.15
2024-05-09T20:07:07.761Z,6.13
2024-05-09T20:12:09.782Z,5.28
2024-05-09T20:17:14.324Z,7.07
2024-05-09T20:22:16.251Z,9.38
2024-05-09T20:27:18.073Z,9.15
2024-05-09T20:32:19.953Z,9.60
2024-05-09T20:37:21.972Z,8.73
2024-05-09T20:42:23.924Z,10.77
2024-05-09T20:47:25.741Z,10.93
2024-05-09T20:52:27.586Z,9.43
2024-05-09T20:57:29.316Z,8.32
2024-05-09T21:02:31.162Z,8.45
2024-05-09T21:07:32.997Z,8.77
2024-05-09T21:12:34.868Z,9.45
2024-05-09T21:17:36.700Z,8.70
2024-05-09T21:22:38.485Z,9.93
2024-05-09T21:27:40.508Z,9.10
2024-05-09T21:32:42.487Z,9.45
2024-05-09T21:37:44.376Z,8.48
2024-05-09T21:42:46.056Z,8.05
2024-05-09T21:47:47.895Z,8.43
2024-05-09T21:52:49.664Z,7.28
2024-05-09T21:57:51.374Z,8.23
2024-05-09T22:02:53.119Z,7.57
2024-05-09T22:07:54.977Z,7.43
2024-05-09T22:12:56.643Z,9.25
2024-05-09T22:17:58.486Z,8.77
2024-05-09T22:23:00.225Z,8.90
2024-05-09T22:28:02.813Z,9.00
2024-05-09T22:33:05.939Z,10.45
2024-05-09T22:38:07.862Z,14.25
2024-05-09T22:43:09.772Z,15.10
2024-05-09T22:48:11.897Z,14.55
2024-05-09T22:53:13.746Z,14.98
2024-05-09T22:58:15.621Z,13.82
2024-05-09T23:03:18.723Z,17.73
2024-05-09T23:08:20.543Z,13.25
2024-05-09T23:13:22.517Z,13.00
2024-05-09T23:18:24.410Z,12.82
2024-05-09T23:23:26.098Z,12.77
2024-05-09T23:28:27.902Z,13.20
2024-05-09T23:33:29.899Z,12.45
2024-05-09T23:38:31.609Z,12.73
2024-05-09T23:43:33.606Z,12.23
2024-05-09T23:48:39.098Z,10.55
2024-05-09T23:53:47.199Z,10.38
2024-05-09T23:58:48.908Z,9.35
